KEAU

Chippewa Valley Regional Airport

Eau Claire, Wisconsin, USA
KEAU 171124Z 1712/1812 32005KT P6SM FEW150 FM172200 VRB03KT P6SM FEW150 FM180600 13003KT P6SM SKC
Issued Valid From Valid To
Dec-17 @ 11:24 UTC
(43 minutes ago)
Dec-17 @ 12:00 UTC
(7 minutes ago)
Dec-18 @ 12:00 UTC
(in 24 hours)
Dec-17 @ 12:00 to Dec-17 @ 22:00
KEAU 171124Z 1712/1812 32005KT P6SM FEW150
Wind Visibility Clouds
320° at 5 knots Greater than 6 miles
  • Few at 15,000' AGL
From Dec-17 @ 22:00 to Dec-18 @ 06:00
FM172200 VRB03KT P6SM FEW150
Wind Visibility Clouds
Variable at 3 knots Greater than 6 miles
  • Few at 15,000' AGL
From Dec-18 @ 06:00 to Dec-18 @ 12:00
FM180600 13003KT P6SM SKC
Wind Visibility Clouds
130° at 3 knots Greater than 6 miles
  • Clear skies
KEAU 171124Z 1712/1812 32005KT P6SM FEW150 FM172200 VRB03KT P6SM FEW150 FM180600 13003KT P6SM SKC
Issued Dec-17 @ 11:24 UTC
(43 minutes ago)
Valid From Dec-17 @ 12:00 UTC
(7 minutes ago)
Valid To Dec-18 @ 12:00 UTC
(in 24 hours)
Dec-17 @ 12:00 - Dec-17 @ 22:00
Wind Visibility
320° at 5 knots Greater than 6 miles
Clouds
  • Few at 15,000' AGL
From Dec-17 @ 22:00 - Dec-18 @ 06:00
Wind Visibility
Variable at 3 knots Greater than 6 miles
Clouds
  • Few at 15,000' AGL
From Dec-18 @ 06:00 - Dec-18 @ 12:00
Wind Visibility
130° at 3 knots Greater than 6 miles
Clouds
  • Clear skies